createdAt,value
2022-08-28T00:00:40.293Z,21.57
2022-08-28T00:03:10.359Z,21.65
2022-08-28T00:05:41.880Z,21.66
2022-08-28T00:08:13.560Z,21.63
2022-08-28T00:10:43.232Z,21.63
2022-08-28T00:13:18.922Z,21.73
2022-08-28T00:15:58.832Z,21.59
2022-08-28T00:18:27.523Z,21.50
2022-08-28T00:20:55.734Z,21.53
2022-08-28T00:23:26.417Z,21.52
2022-08-28T00:26:10.598Z,21.37
2022-08-28T00:28:38.021Z,21.42
2022-08-28T00:31:05.578Z,21.55
2022-08-28T00:33:35.308Z,21.46
2022-08-28T00:36:04.862Z,21.45
2022-08-28T00:38:34.860Z,21.43
2022-08-28T00:41:03.894Z,21.35
2022-08-28T00:43:44.084Z,21.38
2022-08-28T00:46:23.696Z,21.28
2022-08-28T00:48:52.110Z,21.22
2022-08-28T00:51:39.864Z,21.11
2022-08-28T00:54:09.920Z,21.14
2022-08-28T00:56:40.736Z,21.14
2022-08-28T00:59:24.027Z,21.05
2022-08-28T01:01:57.634Z,21.09
2022-08-28T01:04:33.120Z,21.11
2022-08-28T01:07:07.933Z,21.06
2022-08-28T01:09:42.316Z,21.13
2022-08-28T01:12:29.656Z,21.01
2022-08-28T01:15:04.856Z,21.01
2022-08-28T01:17:34.309Z,21.02
2022-08-28T01:20:13.479Z,21.07
2022-08-28T01:23:14.142Z,20.92
2022-08-28T01:25:42.885Z,20.89
2022-08-28T01:28:14.691Z,20.84
2022-08-28T01:30:48.650Z,21.13
2022-08-28T01:33:16.586Z,20.89
2022-08-28T01:35:47.928Z,20.86
2022-08-28T01:38:20.053Z,20.79
2022-08-28T01:40:57.382Z,20.81
2022-08-28T01:43:28.082Z,20.77
2022-08-28T01:46:04.949Z,20.72
2022-08-28T01:48:38.708Z,20.81
2022-08-28T01:51:07.403Z,20.95
2022-08-28T01:53:35.316Z,20.89
2022-08-28T01:56:09.923Z,20.88
2022-08-28T01:58:38.679Z,20.95
2022-08-28T02:01:14.119Z,20.88
2022-08-28T02:03:43.236Z,20.90
2022-08-28T02:06:12.092Z,20.94
2022-08-28T02:08:39.545Z,20.86
2022-08-28T02:11:08.860Z,20.91
2022-08-28T02:13:38.133Z,20.88
2022-08-28T02:16:09.874Z,20.83
2022-08-28T02:18:38.159Z,20.90
2022-08-28T02:21:08.515Z,20.85
2022-08-28T02:23:40.946Z,20.90
2022-08-28T02:26:10.781Z,20.88
2022-08-28T02:28:38.414Z,20.77
2022-08-28T02:31:09.379Z,20.80
2022-08-28T02:33:44.684Z,20.83
2022-08-28T02:36:15.837Z,20.76
2022-08-28T02:38:46.083Z,20.75
2022-08-28T02:41:16.055Z,20.70
2022-08-28T02:43:43.369Z,20.78
2022-08-28T02:46:10.987Z,20.79
2022-08-28T02:48:42.669Z,20.70
2022-08-28T02:51:14.925Z,20.79
2022-08-28T02:53:43.277Z,20.66
2022-08-28T02:56:11.962Z,20.66
2022-08-28T02:58:40.712Z,20.62
2022-08-28T03:01:13.650Z,20.63
2022-08-28T03:03:43.821Z,20.74
2022-08-28T03:06:13.500Z,20.64
2022-08-28T03:08:44.805Z,20.61
2022-08-28T03:11:13.082Z,20.64
2022-08-28T03:13:41.909Z,20.61
2022-08-28T03:16:09.409Z,20.66
2022-08-28T03:18:36.908Z,20.59
2022-08-28T03:21:04.865Z,20.51
2022-08-28T03:23:32.544Z,20.46
2022-08-28T03:26:10.765Z,20.54
2022-08-28T03:28:57.676Z,20.51
2022-08-28T03:31:33.143Z,20.56
2022-08-28T03:34:00.720Z,20.58
2022-08-28T03:36:29.808Z,20.61
2022-08-28T03:39:04.856Z,20.43
2022-08-28T03:41:36.912Z,20.50
2022-08-28T03:44:05.052Z,20.48
2022-08-28T03:46:34.165Z,20.49
2022-08-28T03:49:04.715Z,20.56
2022-08-28T03:51:35.093Z,20.60
2022-08-28T03:54:05.312Z,20.50
2022-08-28T03:56:32.877Z,20.53
2022-08-28T03:59:06.108Z,20.56
2022-08-28T04:01:33.678Z,20.62
2022-08-28T04:04:01.747Z,20.68
2022-08-28T04:06:29.155Z,20.70
2022-08-28T04:09:00.073Z,20.54
2022-08-28T04:11:28.717Z,20.69
2022-08-28T04:13:56.481Z,20.62
2022-08-28T04:16:24.552Z,20.64
2022-08-28T04:18:51.895Z,20.73
2022-08-28T04:21:27.008Z,20.65
2022-08-28T04:23:55.227Z,20.66
2022-08-28T04:26:27.039Z,20.73
2022-08-28T04:28:56.417Z,20.62
2022-08-28T04:31:31.787Z,20.65
2022-08-28T04:34:08.693Z,20.64
2022-08-28T04:36:37.890Z,20.60
2022-08-28T04:39:08.619Z,20.53
2022-08-28T04:41:38.627Z,20.50
2022-08-28T04:44:07.227Z,20.54
2022-08-28T04:46:35.080Z,20.54
2022-08-28T04:49:04.341Z,20.51
2022-08-28T04:51:32.504Z,20.50
2022-08-28T04:54:02.544Z,20.43
2022-08-28T04:56:29.978Z,20.48
2022-08-28T04:58:57.307Z,20.49
2022-08-28T05:01:25.604Z,20.50
2022-08-28T05:04:03.865Z,20.46
2022-08-28T05:06:34.631Z,20.51
2022-08-28T05:09:04.381Z,20.51
2022-08-28T05:11:34.592Z,20.46
2022-08-28T05:14:12.658Z,20.54
2022-08-28T05:16:52.922Z,20.48
2022-08-28T05:19:21.994Z,20.44
2022-08-28T05:21:49.755Z,20.56
2022-08-28T05:24:18.088Z,20.63
2022-08-28T05:26:48.249Z,20.64
2022-08-28T05:29:17.112Z,20.51
2022-08-28T05:31:45.148Z,20.47
2022-08-28T05:34:15.990Z,20.62
2022-08-28T05:36:43.300Z,20.56
2022-08-28T05:39:13.496Z,20.58
2022-08-28T05:41:45.646Z,20.62
2022-08-28T05:44:18.492Z,20.57
2022-08-28T05:46:48.091Z,20.47
2022-08-28T05:49:19.429Z,20.66
2022-08-28T05:51:48.943Z,20.64
2022-08-28T05:54:17.091Z,20.55
2022-08-28T05:56:46.953Z,20.58
2022-08-28T05:59:15.862Z,20.59
2022-08-28T06:01:49.272Z,20.56
2022-08-28T06:04:27.583Z,20.63
2022-08-28T06:06:55.511Z,20.65
2022-08-28T06:09:30.356Z,20.60
2022-08-28T06:12:02.299Z,20.68
2022-08-28T06:14:31.207Z,20.63
2022-08-28T06:17:00.007Z,20.62
2022-08-28T06:19:32.535Z,20.59
2022-08-28T06:22:07.254Z,20.63
2022-08-28T06:24:35.788Z,20.64
2022-08-28T06:27:03.301Z,20.64
2022-08-28T06:29:30.817Z,20.76
2022-08-28T06:32:04.509Z,20.66
2022-08-28T06:34:32.051Z,20.88
2022-08-28T06:36:59.856Z,20.83
2022-08-28T06:39:29.251Z,20.79
2022-08-28T06:41:59.042Z,20.83
2022-08-28T06:44:26.364Z,20.90
2022-08-28T06:46:54.874Z,20.89
2022-08-28T06:49:22.984Z,20.99
2022-08-28T06:51:50.702Z,20.94
2022-08-28T06:54:22.774Z,20.95
2022-08-28T06:56:52.832Z,21.09
2022-08-28T06:59:20.418Z,21.13
2022-08-28T07:01:48.174Z,21.01
2022-08-28T07:04:15.665Z,21.03
2022-08-28T07:06:46.976Z,21.03
2022-08-28T07:09:15.100Z,21.09
2022-08-28T07:11:46.797Z,21.13
2022-08-28T07:14:14.316Z,21.16
2022-08-28T07:16:41.818Z,21.10
2022-08-28T07:19:12.876Z,21.15
2022-08-28T07:21:46.453Z,21.20
2022-08-28T07:24:18.288Z,21.23
2022-08-28T07:26:47.826Z,21.24
2022-08-28T07:29:16.871Z,21.27
2022-08-28T07:31:51.001Z,21.21
2022-08-28T07:34:22.461Z,21.24
2022-08-28T07:36:56.977Z,21.33
2022-08-28T07:39:24.758Z,21.36
2022-08-28T07:41:52.104Z,21.33
2022-08-28T07:44:40.027Z,21.37
2022-08-28T07:47:08.791Z,21.35
2022-08-28T07:49:36.585Z,21.39
2022-08-28T07:52:08.229Z,21.32
2022-08-28T07:54:37.386Z,21.43
2022-08-28T07:57:09.612Z,21.45
2022-08-28T07:59:42.917Z,21.59
2022-08-28T08:02:12.483Z,21.38
2022-08-28T08:04:40.409Z,21.51
2022-08-28T08:07:08.318Z,21.60
2022-08-28T08:09:43.423Z,21.70
2022-08-28T08:12:13.542Z,21.77
2022-08-28T08:14:43.676Z,21.70
2022-08-28T08:17:11.458Z,21.75
2022-08-28T08:19:39.806Z,21.73
2022-08-28T08:22:07.601Z,21.82
2022-08-28T08:24:35.342Z,21.80
2022-08-28T08:27:03.780Z,21.79
2022-08-28T08:29:38.334Z,21.73
2022-08-28T08:32:11.651Z,21.74
2022-08-28T08:34:47.997Z,21.81
2022-08-28T08:37:16.210Z,21.87
2022-08-28T08:39:44.307Z,21.84
2022-08-28T08:42:32.645Z,22.04
2022-08-28T08:45:10.458Z,22.10
2022-08-28T08:47:54.842Z,22.21
2022-08-28T08:50:35.524Z,22.10
2022-08-28T08:53:52.731Z,22.19
2022-08-28T08:56:21.842Z,22.21
2022-08-28T08:58:54.552Z,22.25
2022-08-28T09:02:01.983Z,22.35
2022-08-28T09:04:57.824Z,22.29
2022-08-28T09:07:38.459Z,22.34
2022-08-28T09:10:12.480Z,22.41
2022-08-28T09:13:04.750Z,22.50
2022-08-28T09:15:42.674Z,22.49
2022-08-28T09:18:34.324Z,22.61
2022-08-28T09:21:01.795Z,22.66
2022-08-28T09:23:30.002Z,22.69
2022-08-28T09:26:12.867Z,22.71
2022-08-28T09:28:42.324Z,22.81
2022-08-28T09:31:33.049Z,22.85
2022-08-28T09:34:26.161Z,23.05
2022-08-28T09:36:57.446Z,23.10
2022-08-28T09:39:35.701Z,23.13
2022-08-28T09:42:40.148Z,23.20
2022-08-28T09:45:23.744Z,23.22
2022-08-28T09:47:58.394Z,23.27
2022-08-28T09:50:39.015Z,23.46
2022-08-28T09:53:16.777Z,23.39
2022-08-28T09:56:24.388Z,23.49
2022-08-28T09:59:17.768Z,23.69
2022-08-28T10:02:14.703Z,23.79
2022-08-28T10:05:09.016Z,23.80
2022-08-28T10:07:54.967Z,23.94
2022-08-28T10:10:56.463Z,24.21
2022-08-28T10:13:46.737Z,24.31
2022-08-28T10:17:18.922Z,24.44
2022-08-28T10:20:51.110Z,24.27
2022-08-28T10:23:43.687Z,24.36
2022-08-28T10:27:09.057Z,24.58
2022-08-28T10:30:23.631Z,24.63
2022-08-28T10:33:43.857Z,24.64
2022-08-28T10:36:33.488Z,24.99
2022-08-28T10:39:53.439Z,25.06
2022-08-28T10:42:37.035Z,25.08
2022-08-28T10:45:23.075Z,25.12
2022-08-28T10:48:25.296Z,25.23
2022-08-28T10:51:06.594Z,25.50
2022-08-28T10:53:53.408Z,25.58
2022-08-28T10:56:46.543Z,25.87
2022-08-28T10:59:27.212Z,25.93
2022-08-28T11:01:54.776Z,25.56
2022-08-28T11:04:25.847Z,25.66
2022-08-28T11:07:10.241Z,25.80
2022-08-28T11:09:47.303Z,26.09
2022-08-28T11:12:17.389Z,25.60
2022-08-28T11:14:51.075Z,25.47
2022-08-28T11:17:33.379Z,26.05
2022-08-28T11:20:28.408Z,26.28
2022-08-28T11:23:24.152Z,26.36
2022-08-28T11:26:02.156Z,26.22
2022-08-28T11:28:35.495Z,26.31
2022-08-28T11:31:05.476Z,26.35
2022-08-28T11:33:53.011Z,26.57
2022-08-28T11:36:20.138Z,26.70
2022-08-28T11:38:53.644Z,26.93
2022-08-28T11:41:38.989Z,26.57
2022-08-28T11:44:09.960Z,26.84
2022-08-28T11:46:57.073Z,27.44
2022-08-28T11:49:34.804Z,26.80
2022-08-28T11:52:23.062Z,26.85
2022-08-28T11:55:25.248Z,26.91
2022-08-28T11:58:25.736Z,27.52
2022-08-28T12:01:14.388Z,27.98
2022-08-28T12:03:56.894Z,27.85
2022-08-28T12:07:16.559Z,27.51
2022-08-28T12:09:50.079Z,27.61
2022-08-28T12:12:23.316Z,27.44
2022-08-28T12:14:59.579Z,27.28
2022-08-28T12:17:46.544Z,27.24
2022-08-28T12:20:51.065Z,27.41
2022-08-28T12:23:31.657Z,27.42
2022-08-28T12:26:38.781Z,27.40
2022-08-28T12:29:38.495Z,27.13
2022-08-28T12:32:55.951Z,26.85
2022-08-28T12:35:29.597Z,26.89
2022-08-28T12:37:57.396Z,27.25
2022-08-28T12:40:52.890Z,27.26
2022-08-28T12:43:46.746Z,27.22
2022-08-28T12:46:32.501Z,27.11
2022-08-28T12:49:04.846Z,27.19
2022-08-28T12:51:38.711Z,26.86
2022-08-28T12:54:08.847Z,27.19
2022-08-28T12:56:38.592Z,27.15
2022-08-28T12:59:40.623Z,27.39
2022-08-28T13:02:25.828Z,27.70
2022-08-28T13:05:39.679Z,28.02
2022-08-28T13:08:12.261Z,28.52
2022-08-28T13:10:51.215Z,28.88
2022-08-28T13:13:45.165Z,29.16
2022-08-28T13:16:41.472Z,29.20
2022-08-28T13:19:21.552Z,29.52
2022-08-28T13:21:48.764Z,29.87
2022-08-28T13:24:22.781Z,29.94
2022-08-28T13:27:15.048Z,29.97
2022-08-28T13:30:20.018Z,30.09
2022-08-28T13:33:16.796Z,30.45
2022-08-28T13:35:45.277Z,30.74
2022-08-28T13:38:17.295Z,30.78
2022-08-28T13:40:59.331Z,31.02
2022-08-28T13:43:45.088Z,30.94
2022-08-28T13:46:12.908Z,30.79
2022-08-28T13:48:40.312Z,30.76
2022-08-28T13:51:17.634Z,30.77
2022-08-28T13:53:52.444Z,31.28
2022-08-28T13:56:19.993Z,31.16
2022-08-28T13:58:57.728Z,31.48
2022-08-28T14:01:48.672Z,31.61
2022-08-28T14:04:16.151Z,31.74
2022-08-28T14:06:44.345Z,31.63
2022-08-28T14:09:15.315Z,31.54
2022-08-28T14:11:49.704Z,31.99
2022-08-28T14:14:17.588Z,32.22
2022-08-28T14:16:45.794Z,31.60
2022-08-28T14:19:13.594Z,31.81
2022-08-28T14:21:42.073Z,32.04
2022-08-28T14:24:09.813Z,32.13
2022-08-28T14:26:38.124Z,32.43
2022-08-28T14:29:10.949Z,32.56
2022-08-28T14:31:41.100Z,32.48
2022-08-28T14:34:15.324Z,32.52
2022-08-28T14:36:43.806Z,32.24
2022-08-28T14:39:14.012Z,32.54
2022-08-28T14:41:46.963Z,32.66
2022-08-28T14:44:15.720Z,32.25
2022-08-28T14:46:49.310Z,32.62
2022-08-28T14:49:19.851Z,32.71
2022-08-28T14:51:49.588Z,32.72
2022-08-28T14:54:24.108Z,32.22
2022-08-28T14:56:54.615Z,32.48
2022-08-28T14:59:28.712Z,32.60
2022-08-28T15:02:00.029Z,32.15
2022-08-28T15:04:37.715Z,32.61
2022-08-28T15:07:11.113Z,32.13
2022-08-28T15:09:42.749Z,32.38
2022-08-28T15:12:13.246Z,32.13
2022-08-28T15:14:47.034Z,32.30
2022-08-28T15:17:23.584Z,32.11
2022-08-28T15:20:02.166Z,32.09
2022-08-28T15:22:29.548Z,32.08
2022-08-28T15:24:56.853Z,32.26
2022-08-28T15:27:24.193Z,31.93
2022-08-28T15:29:52.363Z,31.64
2022-08-28T15:32:19.660Z,31.76
2022-08-28T15:34:47.063Z,32.04
2022-08-28T15:37:14.387Z,32.20
2022-08-28T15:40:00.427Z,32.42
2022-08-28T15:42:29.803Z,32.39
2022-08-28T15:45:00.788Z,31.96
2022-08-28T15:47:28.132Z,31.72
2022-08-28T15:49:57.151Z,32.22
2022-08-28T15:52:25.133Z,32.10
2022-08-28T15:54:54.491Z,31.73
2022-08-28T15:57:21.858Z,31.96
2022-08-28T15:59:50.901Z,31.66
2022-08-28T16:02:23.674Z,31.05
2022-08-28T16:04:53.768Z,30.99
2022-08-28T16:07:22.767Z,30.95
2022-08-28T16:09:51.177Z,30.83
2022-08-28T16:12:19.517Z,30.71
2022-08-28T16:14:46.966Z,30.63
2022-08-28T16:17:14.399Z,30.80
2022-08-28T16:19:43.028Z,30.63
2022-08-28T16:22:15.981Z,30.53
2022-08-28T16:24:46.015Z,30.50
2022-08-28T16:27:15.734Z,30.32
2022-08-28T16:29:46.635Z,29.92
2022-08-28T16:32:17.011Z,30.04
2022-08-28T16:34:45.043Z,30.26
2022-08-28T16:37:13.404Z,30.35
2022-08-28T16:39:46.879Z,30.21
2022-08-28T16:42:14.324Z,30.23
2022-08-28T16:44:41.655Z,30.02
2022-08-28T16:47:09.109Z,30.03
2022-08-28T16:49:36.476Z,29.93
2022-08-28T16:52:04.007Z,29.92
2022-08-28T16:54:31.309Z,29.77
2022-08-28T16:56:59.585Z,29.81
2022-08-28T16:59:26.902Z,29.61
2022-08-28T17:01:55.474Z,29.67
2022-08-28T17:04:25.324Z,29.34
2022-08-28T17:06:52.614Z,29.38
2022-08-28T17:09:22.929Z,29.35
2022-08-28T17:11:52.189Z,29.44
2022-08-28T17:14:22.148Z,29.29
2022-08-28T17:16:51.420Z,29.30
2022-08-28T17:19:20.907Z,29.19
2022-08-28T17:22:06.672Z,29.08
2022-08-28T17:24:33.980Z,29.09
2022-08-28T17:27:05.460Z,29.01
2022-08-28T17:29:35.268Z,28.87
2022-08-28T17:32:05.265Z,28.84
2022-08-28T17:34:32.519Z,28.64
2022-08-28T17:36:59.961Z,28.76
2022-08-28T17:39:27.399Z,28.57
2022-08-28T17:41:54.792Z,28.57
2022-08-28T17:44:22.100Z,28.45
2022-08-28T17:46:51.676Z,28.28
2022-08-28T17:49:19.180Z,28.28
2022-08-28T17:51:47.288Z,28.31
2022-08-28T17:54:24.067Z,28.21
2022-08-28T17:56:53.394Z,28.27
2022-08-28T17:59:24.829Z,28.14
2022-08-28T18:01:53.505Z,28.10
2022-08-28T18:04:24.454Z,28.06
2022-08-28T18:06:54.719Z,27.86
2022-08-28T18:09:23.579Z,27.98
2022-08-28T18:11:53.024Z,27.89
2022-08-28T18:14:21.064Z,27.74
2022-08-28T18:16:48.568Z,27.86
2022-08-28T18:19:16.557Z,27.78
2022-08-28T18:21:44.741Z,27.57
2022-08-28T18:24:14.834Z,27.66
2022-08-28T18:26:43.788Z,27.54
2022-08-28T18:29:11.935Z,27.56
2022-08-28T18:31:39.852Z,27.44
2022-08-28T18:34:10.016Z,27.49
2022-08-28T18:36:39.532Z,27.36
2022-08-28T18:39:07.074Z,27.21
2022-08-28T18:41:43.223Z,27.23
2022-08-28T18:44:21.195Z,27.27
2022-08-28T18:46:51.136Z,27.35
2022-08-28T18:49:18.521Z,27.17
2022-08-28T18:51:46.444Z,27.15
2022-08-28T18:54:19.192Z,27.27
2022-08-28T18:56:49.648Z,27.14
2022-08-28T18:59:18.586Z,27.12
2022-08-28T19:01:48.035Z,27.06
2022-08-28T19:04:15.404Z,26.97
2022-08-28T19:06:42.738Z,27.02
2022-08-28T19:09:18.605Z,26.83
2022-08-28T19:11:48.060Z,26.83
2022-08-28T19:14:15.380Z,26.64
2022-08-28T19:16:42.688Z,26.82
2022-08-28T19:19:10.032Z,26.70
2022-08-28T19:21:37.594Z,26.78
2022-08-28T19:24:05.877Z,26.81
2022-08-28T19:26:33.798Z,26.60
2022-08-28T19:29:01.312Z,26.58
2022-08-28T19:31:29.556Z,26.57
2022-08-28T19:33:57.687Z,26.63
2022-08-28T19:36:27.403Z,26.61
2022-08-28T19:38:54.728Z,26.56
2022-08-28T19:41:22.857Z,26.37
2022-08-28T19:43:50.348Z,26.41
2022-08-28T19:46:18.594Z,26.39
2022-08-28T19:48:54.213Z,26.20
2022-08-28T19:51:24.708Z,26.37
2022-08-28T19:53:58.704Z,26.23
2022-08-28T19:56:33.436Z,26.30
2022-08-28T19:59:04.999Z,26.25
2022-08-28T20:01:44.873Z,26.31
2022-08-28T20:04:19.130Z,26.21
2022-08-28T20:06:48.303Z,26.24
2022-08-28T20:09:16.215Z,26.17
2022-08-28T20:11:47.453Z,26.24
2022-08-28T20:14:18.177Z,26.18
2022-08-28T20:16:50.935Z,26.13
2022-08-28T20:19:19.841Z,26.13
2022-08-28T20:21:50.046Z,26.12
2022-08-28T20:24:24.099Z,26.15
2022-08-28T20:26:53.050Z,26.13
2022-08-28T20:29:21.683Z,26.02
2022-08-28T20:31:49.480Z,25.94
2022-08-28T20:34:20.202Z,25.99
2022-08-28T20:36:49.088Z,25.88
2022-08-28T20:39:17.078Z,25.92
2022-08-28T20:41:46.234Z,25.94
2022-08-28T20:44:18.344Z,25.84
2022-08-28T20:46:51.050Z,25.87
2022-08-28T20:49:22.295Z,25.79
2022-08-28T20:51:54.217Z,25.80
2022-08-28T20:54:42.464Z,25.79
2022-08-28T20:57:17.252Z,25.69
2022-08-28T20:59:47.458Z,25.69
2022-08-28T21:02:23.333Z,25.61
2022-08-28T21:04:52.083Z,25.40
2022-08-28T21:07:24.075Z,25.50
2022-08-28T21:10:05.153Z,25.36
2022-08-28T21:12:39.096Z,25.37
2022-08-28T21:15:12.576Z,25.30
2022-08-28T21:17:41.486Z,25.08
2022-08-28T21:20:15.243Z,25.07
2022-08-28T21:22:43.231Z,25.07
2022-08-28T21:25:11.857Z,25.12
2022-08-28T21:27:39.861Z,25.07
2022-08-28T21:30:12.232Z,24.90
2022-08-28T21:32:39.576Z,24.88
2022-08-28T21:35:11.070Z,24.84
2022-08-28T21:37:41.315Z,24.71
2022-08-28T21:40:14.583Z,24.68
2022-08-28T21:42:42.674Z,24.69
2022-08-28T21:45:12.351Z,24.68
2022-08-28T21:47:42.120Z,24.88
2022-08-28T21:50:10.846Z,24.65
2022-08-28T21:52:38.307Z,24.60
2022-08-28T21:55:15.942Z,24.62
2022-08-28T21:57:44.619Z,24.50
2022-08-28T22:00:22.839Z,24.57
2022-08-28T22:02:50.713Z,24.57
2022-08-28T22:05:18.791Z,24.44
2022-08-28T22:07:46.912Z,24.50
2022-08-28T22:10:14.984Z,24.51
2022-08-28T22:12:42.305Z,24.40
2022-08-28T22:15:10.192Z,24.38
2022-08-28T22:17:37.500Z,24.19
2022-08-28T22:20:05.609Z,24.27
2022-08-28T22:22:51.389Z,24.25
2022-08-28T22:25:18.753Z,24.09
2022-08-28T22:27:46.076Z,24.16
2022-08-28T22:30:14.676Z,23.99
2022-08-28T22:32:41.975Z,23.89
2022-08-28T22:35:10.574Z,24.01
2022-08-28T22:37:37.956Z,24.08
2022-08-28T22:40:09.467Z,23.96
2022-08-28T22:42:41.112Z,23.84
2022-08-28T22:45:09.605Z,23.89
2022-08-28T22:47:36.960Z,23.92
2022-08-28T22:50:05.931Z,23.82
2022-08-28T22:52:33.593Z,23.83
2022-08-28T22:55:00.920Z,23.81
2022-08-28T22:57:28.347Z,23.71
2022-08-28T22:59:55.748Z,23.71
2022-08-28T23:02:27.324Z,23.60
2022-08-28T23:04:55.753Z,23.71
2022-08-28T23:07:25.778Z,23.50
2022-08-28T23:09:53.171Z,23.44
2022-08-28T23:12:20.492Z,23.47
2022-08-28T23:14:48.768Z,23.45
2022-08-28T23:17:18.854Z,23.36
2022-08-28T23:19:51.036Z,23.30
2022-08-28T23:22:19.212Z,23.41
2022-08-28T23:24:48.692Z,23.46
2022-08-28T23:27:35.699Z,23.26
2022-08-28T23:30:07.485Z,23.35
2022-08-28T23:32:35.443Z,23.24
2022-08-28T23:35:07.077Z,23.32
2022-08-28T23:37:37.629Z,23.25
2022-08-28T23:40:13.716Z,23.07
2022-08-28T23:42:41.904Z,23.17
2022-08-28T23:45:12.528Z,23.11
2022-08-28T23:47:40.875Z,22.99
2022-08-28T23:50:16.741Z,22.99
2022-08-28T23:52:44.379Z,23.02
2022-08-28T23:55:16.103Z,22.96
2022-08-28T23:57:44.081Z,22.88
